createdAt,value
2023-07-31T00:01:32.972Z,1.92
2023-07-31T00:04:00.179Z,0.40
2023-07-31T00:06:26.809Z,3.22
2023-07-31T00:08:53.359Z,0.60
2023-07-31T00:11:20.043Z,0.45
2023-07-31T00:13:46.692Z,0.73
2023-07-31T00:16:13.265Z,1.05
2023-07-31T00:18:39.892Z,2.03
2023-07-31T00:21:06.555Z,1.55
2023-07-31T00:23:33.144Z,2.45
2023-07-31T00:25:59.791Z,1.88
2023-07-31T00:28:26.643Z,4.60
2023-07-31T00:30:53.284Z,5.63
2023-07-31T00:33:19.903Z,4.15
2023-07-31T00:35:46.592Z,3.95
2023-07-31T00:38:13.167Z,6.68
2023-07-31T00:40:39.778Z,4.30
2023-07-31T00:43:06.646Z,9.05
2023-07-31T00:45:33.911Z,7.03
2023-07-31T00:48:00.848Z,6.55
2023-07-31T00:50:29.222Z,3.03
2023-07-31T00:52:56.104Z,5.68
2023-07-31T00:55:23.046Z,6.80
2023-07-31T00:57:51.439Z,3.85
2023-07-31T01:00:18.069Z,7.05
2023-07-31T01:02:45.498Z,7.60
2023-07-31T01:05:12.185Z,8.50
2023-07-31T01:07:47.825Z,6.85
2023-07-31T01:10:29.105Z,5.22
2023-07-31T01:12:59.010Z,4.50
2023-07-31T01:15:25.644Z,5.10
2023-07-31T01:17:52.343Z,7.72
2023-07-31T01:20:23.267Z,5.88
2023-07-31T01:22:49.799Z,3.20
2023-07-31T01:25:37.660Z,6.07
2023-07-31T01:28:08.890Z,8.32
2023-07-31T01:30:42.257Z,4.78
2023-07-31T01:33:10.252Z,7.63
2023-07-31T01:35:38.020Z,10.00
2023-07-31T01:38:05.908Z,11.65
2023-07-31T01:40:32.846Z,7.65
2023-07-31T01:42:59.571Z,8.60
2023-07-31T01:45:26.212Z,12.45
2023-07-31T01:47:52.840Z,15.70
2023-07-31T01:50:19.411Z,11.13
2023-07-31T01:52:46.053Z,8.40
2023-07-31T01:55:12.725Z,9.38
2023-07-31T01:57:39.337Z,9.13
2023-07-31T02:00:06.553Z,7.28
2023-07-31T02:02:33.273Z,8.18
2023-07-31T02:04:59.960Z,11.27
2023-07-31T02:07:26.521Z,6.75
2023-07-31T02:09:53.150Z,12.13
2023-07-31T02:12:19.782Z,12.88
2023-07-31T02:14:46.403Z,13.55
2023-07-31T02:17:12.976Z,11.88
2023-07-31T02:19:39.558Z,10.82
2023-07-31T02:22:06.267Z,9.30
2023-07-31T02:24:33.092Z,9.57
2023-07-31T02:26:59.638Z,18.88
2023-07-31T02:29:26.278Z,15.73
2023-07-31T02:31:52.955Z,16.90
2023-07-31T02:34:19.587Z,17.92
2023-07-31T02:36:46.168Z,21.23
2023-07-31T02:39:12.772Z,18.08
2023-07-31T02:41:39.331Z,15.65
2023-07-31T02:44:05.900Z,17.23
2023-07-31T02:46:32.748Z,29.90
2023-07-31T02:48:59.396Z,12.82
2023-07-31T02:51:25.977Z,14.50
2023-07-31T02:53:52.558Z,20.50
2023-07-31T02:56:19.281Z,21.38
2023-07-31T02:58:45.881Z,18.10
2023-07-31T03:01:12.486Z,18.15
2023-07-31T03:03:39.239Z,13.68
2023-07-31T03:06:06.059Z,20.00
2023-07-31T03:08:32.627Z,22.63
2023-07-31T03:10:59.303Z,27.85
2023-07-31T03:13:25.990Z,22.83
2023-07-31T03:15:52.601Z,20.83
2023-07-31T03:18:19.229Z,17.30
2023-07-31T03:20:45.769Z,12.10
2023-07-31T03:23:12.339Z,20.40
2023-07-31T03:25:38.941Z,23.75
2023-07-31T03:28:05.591Z,18.00
2023-07-31T03:30:32.310Z,25.55
2023-07-31T03:32:58.937Z,16.20
2023-07-31T03:35:25.567Z,14.45
2023-07-31T03:37:52.132Z,20.55
2023-07-31T03:40:18.871Z,16.90
2023-07-31T03:42:45.576Z,19.55
2023-07-31T03:45:12.164Z,20.08
2023-07-31T03:47:38.878Z,11.75
2023-07-31T03:50:06.100Z,20.42
2023-07-31T03:52:32.657Z,16.52
2023-07-31T03:54:59.229Z,23.92
2023-07-31T03:57:25.794Z,26.58
2023-07-31T03:59:52.340Z,20.83
2023-07-31T04:02:19.980Z,19.27
2023-07-31T04:04:46.706Z,17.77
2023-07-31T04:07:13.337Z,20.00
2023-07-31T04:09:39.913Z,19.33
2023-07-31T04:12:06.818Z,21.42
2023-07-31T04:14:33.423Z,20.85
2023-07-31T04:17:00.030Z,20.63
2023-07-31T04:19:26.611Z,25.88
2023-07-31T04:21:53.201Z,22.77
2023-07-31T04:24:25.276Z,29.15
2023-07-31T04:26:53.119Z,20.83
2023-07-31T04:29:20.073Z,19.27
2023-07-31T04:31:47.151Z,14.60
2023-07-31T04:34:13.849Z,18.20
2023-07-31T04:36:40.742Z,19.30
2023-07-31T04:39:07.567Z,24.13
2023-07-31T04:41:34.116Z,18.00
2023-07-31T04:44:00.754Z,17.33
2023-07-31T04:46:27.493Z,17.25
2023-07-31T04:48:54.144Z,22.70
2023-07-31T04:51:22.237Z,20.38
2023-07-31T04:53:48.804Z,17.92
2023-07-31T04:56:16.614Z,21.13
2023-07-31T04:58:43.287Z,21.42
2023-07-31T05:01:09.945Z,15.35
2023-07-31T05:03:36.677Z,18.38
2023-07-31T05:06:03.362Z,18.13
2023-07-31T05:08:30.078Z,17.27
2023-07-31T05:10:56.647Z,11.73
2023-07-31T05:13:23.197Z,12.38
2023-07-31T05:15:50.745Z,12.10
2023-07-31T05:18:17.501Z,9.57
2023-07-31T05:20:44.089Z,11.15
2023-07-31T05:23:10.694Z,13.82
2023-07-31T05:25:37.303Z,15.40
2023-07-31T05:28:04.001Z,9.30
2023-07-31T05:30:33.741Z,5.45
2023-07-31T05:33:00.340Z,4.32
2023-07-31T05:35:27.063Z,6.25
2023-07-31T05:37:53.668Z,5.65
2023-07-31T05:40:20.263Z,5.47
2023-07-31T05:42:46.858Z,4.35
2023-07-31T05:45:14.584Z,3.38
2023-07-31T05:47:41.316Z,3.03
2023-07-31T05:50:08.229Z,3.50
2023-07-31T05:52:34.889Z,3.80
2023-07-31T05:55:02.502Z,2.33
2023-07-31T05:57:29.173Z,4.15
2023-07-31T05:59:55.778Z,2.63
2023-07-31T06:02:22.487Z,3.45
2023-07-31T06:04:49.183Z,6.53
2023-07-31T06:07:15.862Z,3.40
2023-07-31T06:09:42.445Z,5.07
2023-07-31T06:12:09.937Z,1.20
2023-07-31T06:14:36.500Z,2.45
2023-07-31T06:17:03.149Z,2.80
2023-07-31T06:19:29.691Z,3.05
2023-07-31T06:21:56.265Z,8.48
2023-07-31T06:24:23.284Z,2.95
2023-07-31T06:26:49.912Z,2.70
2023-07-31T06:29:16.595Z,3.83
2023-07-31T06:31:43.309Z,3.00
2023-07-31T06:34:09.959Z,2.83
2023-07-31T06:36:36.634Z,2.75
2023-07-31T06:39:03.258Z,2.20
2023-07-31T06:41:29.830Z,1.98
2023-07-31T06:43:56.524Z,3.10
2023-07-31T06:46:23.130Z,2.63
2023-07-31T06:48:49.980Z,1.15
2023-07-31T06:51:17.364Z,2.83
2023-07-31T06:53:46.306Z,4.60
2023-07-31T06:56:13.034Z,2.10
2023-07-31T06:58:40.195Z,1.55
2023-07-31T07:01:06.819Z,5.95
2023-07-31T07:03:33.893Z,3.83
2023-07-31T07:06:00.559Z,2.75
2023-07-31T07:08:27.697Z,1.20
2023-07-31T07:10:55.080Z,8.18
2023-07-31T07:13:22.847Z,1.13
2023-07-31T07:15:50.347Z,2.55
2023-07-31T07:18:17.066Z,1.48
2023-07-31T07:20:52.103Z,1.02
2023-07-31T07:23:19.118Z,2.50
2023-07-31T07:25:46.898Z,1.63
2023-07-31T07:28:13.895Z,3.63
2023-07-31T07:30:40.616Z,1.13
2023-07-31T07:33:07.447Z,1.33
2023-07-31T07:35:36.020Z,0.52
2023-07-31T07:38:03.869Z,0.98
2023-07-31T07:40:30.498Z,1.77
2023-07-31T07:42:57.171Z,1.55
2023-07-31T07:45:23.764Z,0.75
2023-07-31T07:47:50.360Z,3.33
2023-07-31T07:50:16.973Z,1.15
2023-07-31T07:52:43.516Z,0.98
2023-07-31T07:55:10.198Z,1.70
2023-07-31T07:57:36.775Z,1.55
2023-07-31T08:00:03.824Z,1.48
2023-07-31T08:02:30.459Z,3.00
2023-07-31T08:04:57.220Z,0.90
2023-07-31T08:07:23.875Z,0.88
2023-07-31T08:09:50.455Z,0.68
2023-07-31T08:12:17.029Z,0.47
2023-07-31T08:14:43.564Z,0.75
2023-07-31T08:17:10.359Z,0.17
2023-07-31T08:19:37.031Z,4.80
2023-07-31T08:22:03.893Z,3.60
2023-07-31T08:24:30.455Z,0.20
2023-07-31T08:26:56.988Z,0.10
2023-07-31T08:29:23.599Z,1.05
2023-07-31T08:31:50.132Z,0.40
2023-07-31T08:34:16.742Z,0.10
2023-07-31T08:36:43.369Z,0.10
2023-07-31T08:39:10.105Z,1.00
2023-07-31T08:41:40.544Z,0.47
2023-07-31T08:44:08.845Z,2.20
2023-07-31T08:46:36.087Z,0.45
2023-07-31T08:49:07.194Z,1.48
2023-07-31T08:51:36.311Z,0.00
2023-07-31T08:54:05.170Z,0.30
2023-07-31T08:56:33.853Z,0.95
2023-07-31T08:59:03.999Z,3.30
2023-07-31T09:01:32.769Z,0.90
2023-07-31T09:04:02.046Z,0.25
2023-07-31T09:06:31.418Z,0.30
2023-07-31T09:08:58.120Z,0.47
2023-07-31T09:11:26.359Z,1.02
2023-07-31T09:13:54.527Z,0.15
2023-07-31T09:16:31.549Z,1.48
2023-07-31T09:18:59.656Z,0.32
2023-07-31T09:21:27.139Z,6.38
2023-07-31T09:23:55.403Z,4.72
2023-07-31T09:26:31.545Z,0.57
2023-07-31T09:28:59.354Z,0.22
2023-07-31T09:31:43.441Z,0.10
2023-07-31T09:34:12.271Z,2.78
2023-07-31T09:36:48.648Z,0.10
2023-07-31T09:39:21.015Z,0.22
2023-07-31T09:41:57.303Z,2.90
2023-07-31T09:44:39.749Z,0.20
2023-07-31T09:47:06.624Z,0.68
2023-07-31T09:49:33.213Z,2.30
2023-07-31T09:51:59.956Z,4.13
2023-07-31T09:54:26.562Z,1.58
2023-07-31T09:56:54.098Z,1.88
2023-07-31T09:59:23.884Z,3.13
2023-07-31T10:01:53.089Z,4.30
2023-07-31T10:04:26.899Z,4.65
2023-07-31T10:06:55.074Z,3.88
2023-07-31T10:09:25.346Z,3.05
2023-07-31T10:11:59.824Z,3.60
2023-07-31T10:14:28.640Z,2.63
2023-07-31T10:16:55.974Z,5.53
2023-07-31T10:19:23.202Z,4.28
2023-07-31T10:21:50.148Z,2.92
2023-07-31T10:24:17.430Z,5.28
2023-07-31T10:26:46.868Z,6.25
2023-07-31T10:29:14.573Z,5.20
2023-07-31T10:31:42.089Z,8.68
2023-07-31T10:34:09.043Z,6.60
2023-07-31T10:36:35.604Z,6.57
2023-07-31T10:39:05.394Z,7.93
2023-07-31T10:41:32.958Z,5.13
2023-07-31T10:44:02.760Z,8.07
2023-07-31T10:46:30.318Z,6.43
2023-07-31T10:49:02.044Z,13.57
2023-07-31T10:51:36.308Z,11.38
2023-07-31T10:54:16.954Z,6.18
2023-07-31T10:56:47.889Z,7.45
2023-07-31T10:59:15.199Z,5.88
2023-07-31T11:01:53.482Z,5.25
2023-07-31T11:04:25.806Z,11.75
2023-07-31T11:07:03.808Z,3.72
2023-07-31T11:09:32.977Z,2.00
2023-07-31T11:12:01.017Z,7.10
2023-07-31T11:14:27.792Z,9.15
2023-07-31T11:16:54.464Z,4.22
2023-07-31T11:19:27.197Z,5.35
2023-07-31T11:21:54.436Z,4.50
2023-07-31T11:24:21.308Z,3.72
2023-07-31T11:26:54.289Z,4.25
2023-07-31T11:29:21.730Z,7.82
2023-07-31T11:31:50.275Z,10.85
2023-07-31T11:34:18.383Z,6.45
2023-07-31T11:36:56.872Z,3.95
2023-07-31T11:39:23.479Z,10.52
2023-07-31T11:41:50.109Z,8.65
2023-07-31T11:44:27.735Z,6.88
2023-07-31T11:46:57.934Z,10.05
2023-07-31T11:49:24.722Z,4.97
2023-07-31T11:51:51.555Z,5.18
2023-07-31T11:54:18.708Z,6.28
2023-07-31T11:56:45.748Z,9.30
2023-07-31T11:59:14.014Z,8.13
2023-07-31T12:01:40.999Z,11.15
2023-07-31T12:04:08.209Z,5.72
2023-07-31T12:06:38.701Z,8.32
2023-07-31T12:09:06.447Z,7.30
2023-07-31T12:11:44.060Z,6.75
2023-07-31T12:14:24.997Z,7.97
2023-07-31T12:16:59.789Z,6.15
2023-07-31T12:21:59.176Z,8.38
2023-07-31T12:24:27.635Z,9.07
2023-07-31T12:26:55.948Z,6.82
2023-07-31T12:29:22.643Z,8.07
2023-07-31T12:31:49.347Z,7.85
2023-07-31T12:34:21.825Z,5.88
2023-07-31T12:36:51.790Z,7.45
2023-07-31T12:39:18.430Z,5.40
2023-07-31T12:41:45.040Z,8.88
2023-07-31T12:44:11.698Z,4.43
2023-07-31T12:46:39.074Z,7.43
2023-07-31T12:49:06.092Z,4.75
2023-07-31T12:51:32.684Z,10.85
2023-07-31T12:53:59.252Z,8.93
2023-07-31T12:56:26.012Z,9.38
2023-07-31T12:58:52.560Z,3.30
2023-07-31T13:01:19.247Z,3.60
2023-07-31T13:03:46.014Z,9.55
2023-07-31T13:06:12.772Z,10.98
2023-07-31T13:08:39.358Z,9.15
2023-07-31T13:11:05.973Z,3.70
2023-07-31T13:13:33.304Z,7.35
2023-07-31T13:16:00.287Z,4.20
2023-07-31T13:18:27.057Z,6.50
2023-07-31T13:20:53.610Z,4.03
2023-07-31T13:23:20.253Z,3.67
2023-07-31T13:25:46.901Z,5.70
2023-07-31T13:28:13.579Z,8.85
2023-07-31T13:30:40.240Z,4.10
2023-07-31T13:33:12.382Z,3.75
2023-07-31T13:35:44.625Z,3.45
2023-07-31T13:38:11.256Z,4.10
2023-07-31T13:40:37.884Z,3.17
2023-07-31T13:43:04.507Z,4.00
2023-07-31T13:45:31.158Z,4.82
2023-07-31T13:47:57.814Z,6.07
2023-07-31T13:50:24.441Z,3.10
2023-07-31T13:52:51.014Z,4.28
2023-07-31T13:55:17.619Z,4.47
2023-07-31T13:57:44.328Z,3.55
2023-07-31T14:00:11.651Z,5.60
2023-07-31T14:02:38.264Z,4.32
2023-07-31T14:05:05.142Z,6.40
2023-07-31T14:07:33.506Z,6.88
2023-07-31T14:10:00.266Z,4.20
2023-07-31T14:12:41.768Z,2.28
2023-07-31T14:15:09.973Z,3.05
2023-07-31T14:17:36.794Z,3.50
2023-07-31T14:20:04.725Z,4.40
2023-07-31T14:22:32.138Z,2.85
2023-07-31T14:24:58.755Z,5.68
2023-07-31T14:27:25.618Z,2.85
2023-07-31T14:29:52.303Z,2.88
2023-07-31T14:32:18.852Z,2.80
2023-07-31T14:34:45.375Z,1.55
2023-07-31T14:37:11.903Z,1.25
2023-07-31T14:39:41.013Z,4.63
2023-07-31T14:42:08.144Z,1.23
2023-07-31T14:44:34.690Z,1.13
2023-07-31T14:47:01.290Z,1.52
2023-07-31T14:49:30.728Z,1.98
2023-07-31T14:51:57.381Z,7.53
2023-07-31T14:54:23.956Z,3.28
2023-07-31T14:56:50.489Z,2.70
2023-07-31T14:59:17.103Z,2.70
2023-07-31T15:01:43.773Z,7.28
2023-07-31T15:04:10.403Z,5.85
2023-07-31T15:06:37.057Z,4.57
2023-07-31T15:09:03.753Z,3.28
2023-07-31T15:11:30.318Z,2.25
2023-07-31T15:13:57.159Z,2.75
2023-07-31T15:16:23.911Z,6.63
2023-07-31T15:18:50.498Z,3.40
2023-07-31T15:21:17.133Z,9.10
2023-07-31T15:23:43.758Z,2.85
2023-07-31T15:26:10.334Z,3.92
2023-07-31T15:28:38.661Z,3.75
2023-07-31T15:31:05.728Z,4.32
2023-07-31T15:33:32.484Z,2.58
2023-07-31T15:35:59.137Z,2.97
2023-07-31T15:38:25.848Z,11.20
2023-07-31T15:40:52.469Z,5.20
2023-07-31T15:43:21.124Z,2.85
2023-07-31T15:45:47.739Z,1.30
2023-07-31T15:48:14.388Z,0.65
2023-07-31T15:50:41.338Z,2.63
2023-07-31T15:53:07.961Z,0.45
2023-07-31T15:55:34.916Z,0.93
2023-07-31T15:58:01.491Z,4.05
2023-07-31T16:00:28.188Z,0.65
2023-07-31T16:02:54.862Z,0.80
2023-07-31T16:05:21.516Z,3.15
2023-07-31T16:07:48.094Z,2.10
2023-07-31T16:10:14.671Z,2.55
2023-07-31T16:12:41.274Z,1.75
2023-07-31T16:15:08.647Z,1.23
2023-07-31T16:17:35.271Z,1.35
2023-07-31T16:20:01.923Z,0.43
2023-07-31T16:22:28.527Z,1.27
2023-07-31T16:24:55.105Z,0.80
2023-07-31T16:27:24.434Z,2.75
2023-07-31T16:29:51.403Z,1.75
2023-07-31T16:32:18.194Z,2.17
2023-07-31T16:34:44.823Z,0.50
2023-07-31T16:37:11.406Z,0.60
2023-07-31T16:39:38.241Z,3.92
2023-07-31T16:42:05.304Z,0.70
2023-07-31T16:44:31.919Z,0.60
2023-07-31T16:46:58.667Z,2.63
2023-07-31T16:49:25.223Z,12.23
2023-07-31T16:51:52.562Z,0.40
2023-07-31T16:54:19.166Z,0.60
2023-07-31T16:56:58.467Z,2.78
2023-07-31T16:59:27.853Z,1.45
2023-07-31T17:02:15.231Z,2.63
2023-07-31T17:04:40.922Z,1.10
2023-07-31T17:07:07.506Z,1.40
2023-07-31T17:09:34.111Z,1.40
2023-07-31T17:12:00.946Z,6.00
2023-07-31T17:14:27.506Z,0.63
2023-07-31T17:16:54.622Z,2.75
2023-07-31T17:19:21.221Z,4.43
2023-07-31T17:21:47.819Z,4.22
2023-07-31T17:24:14.373Z,0.95
2023-07-31T17:26:40.987Z,0.80
2023-07-31T17:29:07.562Z,2.03
2023-07-31T17:31:35.847Z,0.85
2023-07-31T17:34:02.921Z,3.55
2023-07-31T17:36:29.496Z,6.50
2023-07-31T17:38:56.091Z,0.85
2023-07-31T17:41:23.544Z,2.65
2023-07-31T17:43:50.187Z,4.40
2023-07-31T17:46:16.804Z,0.47
2023-07-31T17:48:44.586Z,0.77
2023-07-31T17:51:11.211Z,0.90
2023-07-31T17:53:37.760Z,1.10
2023-07-31T17:56:04.503Z,1.60
2023-07-31T17:58:31.065Z,3.30
2023-07-31T18:00:57.644Z,2.53
2023-07-31T18:03:26.863Z,2.00
2023-07-31T18:05:53.663Z,3.38
2023-07-31T18:08:20.486Z,3.42
2023-07-31T18:10:47.909Z,3.22
2023-07-31T18:13:15.245Z,2.10
2023-07-31T18:15:48.516Z,3.65
2023-07-31T18:18:15.714Z,3.58
2023-07-31T18:20:42.654Z,3.22
2023-07-31T18:23:09.353Z,3.00
2023-07-31T18:25:35.987Z,4.15
2023-07-31T18:28:02.880Z,3.10
2023-07-31T18:30:29.517Z,5.28
2023-07-31T18:32:56.126Z,4.75
2023-07-31T18:35:24.018Z,4.47
2023-07-31T18:37:50.638Z,2.95
2023-07-31T18:40:17.205Z,3.03
2023-07-31T18:42:44.028Z,6.70
2023-07-31T18:45:10.708Z,5.93
2023-07-31T18:47:37.275Z,8.15
2023-07-31T18:50:05.373Z,5.03
2023-07-31T18:52:33.114Z,6.43
2023-07-31T18:54:59.816Z,5.18
2023-07-31T18:57:26.956Z,10.05
2023-07-31T18:59:53.510Z,3.88
2023-07-31T19:02:20.155Z,3.13
2023-07-31T19:04:46.791Z,5.05
2023-07-31T19:07:15.568Z,3.22
2023-07-31T19:09:42.211Z,10.90
2023-07-31T19:12:08.933Z,9.93
2023-07-31T19:14:36.391Z,4.40
2023-07-31T19:17:03.124Z,3.60
2023-07-31T19:19:29.763Z,8.20
2023-07-31T19:21:56.297Z,8.38
2023-07-31T19:24:24.420Z,1.98
2023-07-31T19:26:51.900Z,7.07
2023-07-31T19:29:18.560Z,4.18
2023-07-31T19:31:45.258Z,5.45
2023-07-31T19:34:12.753Z,2.20
2023-07-31T19:36:40.668Z,4.38
2023-07-31T19:39:07.483Z,7.63
2023-07-31T19:41:34.078Z,1.60
2023-07-31T19:44:00.669Z,4.65
2023-07-31T19:46:27.308Z,6.05
2023-07-31T19:48:54.626Z,4.80
2023-07-31T19:51:21.246Z,5.65
2023-07-31T19:53:47.800Z,6.88
2023-07-31T19:56:14.400Z,8.48
2023-07-31T19:58:41.037Z,5.25
2023-07-31T20:01:08.027Z,4.88
2023-07-31T20:03:34.591Z,4.95
2023-07-31T20:06:01.276Z,5.15
2023-07-31T20:08:27.886Z,8.57
2023-07-31T20:10:54.981Z,10.57
2023-07-31T20:13:21.533Z,8.30
2023-07-31T20:15:48.177Z,6.75
2023-07-31T20:18:14.948Z,9.70
2023-07-31T20:20:41.677Z,6.07
2023-07-31T20:23:08.332Z,3.70
2023-07-31T20:25:36.007Z,6.78
2023-07-31T20:28:03.477Z,5.85
2023-07-31T20:30:30.108Z,4.45
2023-07-31T20:32:57.907Z,6.38
2023-07-31T20:35:25.211Z,7.18
2023-07-31T20:37:51.918Z,4.55
2023-07-31T20:40:18.685Z,5.35
2023-07-31T20:42:56.573Z,7.45
2023-07-31T20:45:23.241Z,5.32
2023-07-31T20:47:49.948Z,5.75
2023-07-31T20:50:16.852Z,4.85
2023-07-31T20:52:43.424Z,6.18
2023-07-31T20:55:10.016Z,12.43
2023-07-31T20:57:36.573Z,5.80
2023-07-31T21:00:03.317Z,5.47
2023-07-31T21:02:29.982Z,2.58
2023-07-31T21:04:56.665Z,6.85
2023-07-31T21:07:23.256Z,4.75
2023-07-31T21:09:49.899Z,1.65
2023-07-31T21:12:16.422Z,2.88
2023-07-31T21:14:43.413Z,1.60
2023-07-31T21:17:10.030Z,4.55
2023-07-31T21:19:36.641Z,11.05
2023-07-31T21:22:03.247Z,6.03
2023-07-31T21:24:29.821Z,5.28
2023-07-31T21:26:56.355Z,2.03
2023-07-31T21:29:22.921Z,4.10
2023-07-31T21:31:49.536Z,2.72
2023-07-31T21:34:16.157Z,10.30
2023-07-31T21:36:42.846Z,8.02
2023-07-31T21:39:09.485Z,3.40
2023-07-31T21:41:36.222Z,7.47
2023-07-31T21:44:02.840Z,8.93
2023-07-31T21:46:29.843Z,13.98
2023-07-31T21:48:56.444Z,7.78
2023-07-31T21:51:23.261Z,7.88
2023-07-31T21:53:49.795Z,8.30
2023-07-31T21:56:16.445Z,8.77
2023-07-31T21:58:43.027Z,3.30
2023-07-31T22:01:09.595Z,12.95
2023-07-31T22:03:38.021Z,6.53
2023-07-31T22:06:04.647Z,7.25
2023-07-31T22:08:31.265Z,4.93
2023-07-31T22:10:57.843Z,5.93
2023-07-31T22:13:24.464Z,10.13
2023-07-31T22:15:51.090Z,7.05
2023-07-31T22:18:18.613Z,5.40
2023-07-31T22:20:51.877Z,7.05
2023-07-31T22:23:18.450Z,5.60
2023-07-31T22:25:45.049Z,7.70
2023-07-31T22:28:20.937Z,6.68
2023-07-31T22:30:48.529Z,4.40
2023-07-31T22:33:15.216Z,3.72
2023-07-31T22:35:43.036Z,3.95
2023-07-31T22:38:09.757Z,3.40
2023-07-31T22:40:36.303Z,8.35
2023-07-31T22:43:02.908Z,4.07
2023-07-31T22:45:29.527Z,3.65
2023-07-31T22:47:56.200Z,5.05
2023-07-31T22:50:22.887Z,7.43
2023-07-31T22:52:49.543Z,5.72
2023-07-31T22:55:16.181Z,7.80
2023-07-31T22:57:42.827Z,8.45
2023-07-31T23:00:09.866Z,8.27
2023-07-31T23:02:36.587Z,10.05
2023-07-31T23:05:03.315Z,7.13
2023-07-31T23:07:29.979Z,5.75
2023-07-31T23:09:56.544Z,9.35
2023-07-31T23:12:23.136Z,4.93
2023-07-31T23:14:49.722Z,7.40
2023-07-31T23:17:16.398Z,6.63
2023-07-31T23:19:43.159Z,7.97
2023-07-31T23:22:09.904Z,6.97
2023-07-31T23:24:36.462Z,5.97
2023-07-31T23:27:03.014Z,4.43
2023-07-31T23:29:29.609Z,4.93
2023-07-31T23:31:56.263Z,4.95
2023-07-31T23:34:22.982Z,3.30
2023-07-31T23:36:49.558Z,3.17
2023-07-31T23:39:16.074Z,4.70
2023-07-31T23:41:42.662Z,3.92
2023-07-31T23:44:09.272Z,6.60
2023-07-31T23:46:35.852Z,3.88
2023-07-31T23:49:02.447Z,2.67
2023-07-31T23:51:29.633Z,2.05
2023-07-31T23:53:56.694Z,8.70
2023-07-31T23:56:23.348Z,7.00
2023-07-31T23:58:49.936Z,3.78
